»·PEaware :: N448RA KBFL-KSBD

N448RA :: KBFL-KSBD

FLIGHT INFORMATION

Flight Status: Arrived
Operator: Privately registered:
United States
More flights under this callsign
Pilot: Scott M. (16181)
Aircraft: Unknown
(KODI)
More flights by this aircraft type
Origin: KBFL Meadows
United States
Destination: KSBD San Bernardino Intl
United States
More flights between these airports :: More routes between these airports
Route:
File this flight plan on PilotEdge
Remarks:
Altitude:
(Current/Filed)
0ft
Speed:
(Current/Filed)
0kts
Departed: 27-Sep-17 04:36 PM
Arrived: 27-Sep-17 05:47 PM
Distance/Time
Traveled:
120nm/1:11
Distance/Time
To Go:
Arrived

Flight Plot

Page will automatically refresh every two minutes.


Map Options




Map Legend


Flown Route
Filed Route
Departure Airport
Arrival Airport
Navaid (VOR, NDB)
Fix

Horizontal Profiles

Position Reports

Time Latitude Longitude Heading Altitude Ground
Speed
27-Sep-17 16:35 35.429382 -119.046089 226 511ft 0kts
27-Sep-17 16:36 35.429382 -119.046089 226 511ft 0kts
27-Sep-17 16:37 35.429322 -119.046158 217 511ft 4kts
27-Sep-17 16:38 35.426546 -119.045135 138 511ft 27kts
27-Sep-17 16:39 35.425779 -119.044764 210 510ft 0kts
27-Sep-17 16:40 35.432992 -119.055385 316 853ft 119kts
27-Sep-17 16:41 35.454076 -119.060020 48 2242ft 138kts
27-Sep-17 16:42 35.451186 -119.031846 147 3846ft 152kts
27-Sep-17 16:43 35.423866 -119.013862 166 4824ft 159kts
27-Sep-17 16:44 35.395641 -118.998203 146 5681ft 157kts
27-Sep-17 16:45 35.369733 -118.974123 138 6574ft 157kts
27-Sep-17 16:46 35.345619 -118.947276 135 7413ft 160kts
27-Sep-17 16:47 35.320819 -118.917761 134 7433ft 186kts
27-Sep-17 16:48 35.288298 -118.899968 170 7430ft 191kts
27-Sep-17 16:49 35.267409 -118.865303 120 8257ft 158kts
27-Sep-17 16:50 35.248614 -118.834316 127 9356ft 147kts
27-Sep-17 16:51 35.227248 -118.805017 131 9427ft 167kts
27-Sep-17 16:52 35.205298 -118.776867 132 9439ft 160kts
27-Sep-17 16:53 35.183161 -118.749250 132 9472ft 156kts
27-Sep-17 16:54 35.160925 -118.721808 133 9511ft 154kts
27-Sep-17 16:55 35.139633 -118.695661 133 9540ft 152kts
27-Sep-17 16:56 35.118299 -118.669515 133 9566ft 151kts
27-Sep-17 16:57 35.096733 -118.643119 133 9585ft 152kts
27-Sep-17 16:58 35.073910 -118.615213 133 9574ft 153kts
27-Sep-17 16:59 35.052411 -118.588955 133 9583ft 153kts
27-Sep-17 17:00 35.031151 -118.563011 133 9585ft 153kts
27-Sep-17 17:01 35.009078 -118.536138 132 9584ft 153kts
27-Sep-17 17:02 34.999076 -118.523961 132 9583ft 153kts
27-Sep-17 17:03 34.977492 -118.497692 132 9578ft 154kts
27-Sep-17 17:04 34.956107 -118.471666 131 9570ft 154kts
27-Sep-17 17:05 34.934425 -118.445318 131 9559ft 153kts
27-Sep-17 17:06 34.913236 -118.419569 130 9546ft 152kts
27-Sep-17 17:07 34.894115 -118.396351 130 9529ft 151kts
27-Sep-17 17:08 34.873871 -118.371763 129 9511ft 147kts
27-Sep-17 17:09 34.855433 -118.349368 130 9502ft 144kts
27-Sep-17 17:10 34.836353 -118.326233 130 9496ft 144kts
27-Sep-17 17:11 34.816621 -118.302330 130 9493ft 143kts
27-Sep-17 17:12 34.796269 -118.277689 130 9497ft 146kts
27-Sep-17 17:13 34.780762 -118.246098 115 9497ft 146kts
27-Sep-17 17:14 34.766682 -118.215353 114 9496ft 144kts
27-Sep-17 17:15 34.752792 -118.184807 114 9498ft 144kts
27-Sep-17 17:16 34.738936 -118.154238 114 9499ft 145kts
27-Sep-17 17:17 34.725226 -118.123951 114 9500ft 145kts
27-Sep-17 17:18 34.711580 -118.093829 114 9501ft 146kts
27-Sep-17 17:19 34.698086 -118.064078 114 9501ft 146kts
27-Sep-17 17:20 34.684603 -118.034387 114 9497ft 147kts
27-Sep-17 17:21 34.671247 -118.004971 114 9494ft 146kts
27-Sep-17 17:22 34.655661 -117.970697 114 9492ft 146kts
27-Sep-17 17:23 34.637810 -117.931435 114 9004ft 141kts
27-Sep-17 17:24 34.620740 -117.893889 115 8313ft 142kts
27-Sep-17 17:25 34.603577 -117.856239 115 7635ft 144kts
27-Sep-17 17:26 34.586454 -117.818786 115 7496ft 140kts
27-Sep-17 17:27 34.568651 -117.779829 115 7504ft 145kts
27-Sep-17 17:28 34.551740 -117.742916 115 7505ft 145kts
27-Sep-17 17:29 34.533880 -117.703960 115 7507ft 144kts
27-Sep-17 17:30 34.517054 -117.667323 115 7508ft 143kts
27-Sep-17 17:31 34.500866 -117.632007 115 7508ft 141kts
27-Sep-17 17:32 34.483640 -117.594496 115 7510ft 139kts
27-Sep-17 17:33 34.464544 -117.558867 141 7510ft 142kts
27-Sep-17 17:34 34.436534 -117.534204 139 7510ft 141kts
27-Sep-17 17:35 34.409664 -117.510559 139 7511ft 141kts
27-Sep-17 17:36 34.381419 -117.485678 139 7501ft 140kts
27-Sep-17 17:37 34.354256 -117.461749 139 7480ft 139kts
27-Sep-17 17:38 34.326933 -117.437688 140 7459ft 136kts
27-Sep-17 17:39 34.300574 -117.414500 140 7436ft 130kts
27-Sep-17 17:40 34.276357 -117.393200 141 7353ft 122kts
27-Sep-17 17:41 34.249293 -117.369257 144 6749ft 137kts
27-Sep-17 17:42 34.224222 -117.347438 144 6295ft 131kts
27-Sep-17 17:43 34.199216 -117.321570 127 5572ft 128kts
27-Sep-17 17:44 34.179224 -117.291089 128 4813ft 125kts
27-Sep-17 17:45 34.160982 -117.260671 125 4146ft 104kts
27-Sep-17 17:46 34.145384 -117.234565 124 3407ft 100kts
27-Sep-17 17:47 34.132173 -117.211326 140 2591ft 83kts
27-Sep-17 17:48 34.112336 -117.203694 178 1885ft 80kts
27-Sep-17 17:49 34.099537 -117.220491 250 1167ft 75kts
27-Sep-17 17:50 34.094233 -117.238778 250 1162ft 47kts
27-Sep-17 17:51 34.094773 -117.240543 32 1162ft 15kts
27-Sep-17 17:52 34.095310 -117.241085 251 1162ft 29kts

Navigation Log

Ident Type
1. KBFL Airport
2. KSBD Airport